createdAt,value
2022-11-29T00:01:08.000Z,20.8
2022-11-29T00:04:41.000Z,22.2
2022-11-29T00:08:13.000Z,21.5
2022-11-29T00:11:46.000Z,22.9
2022-11-29T00:15:18.000Z,22
2022-11-29T00:18:51.000Z,22.5
2022-11-29T00:22:24.000Z,24.2
2022-11-29T00:25:56.000Z,21
2022-11-29T00:28:47.000Z,21.7
2022-11-29T00:32:20.000Z,23.2
2022-11-29T00:35:53.000Z,24.6
2022-11-29T00:39:25.000Z,23.8
2022-11-29T00:42:58.000Z,20.5
2022-11-29T00:46:30.000Z,21.2
2022-11-29T00:50:03.000Z,19.6
2022-11-29T00:53:36.000Z,21.2
2022-11-29T00:57:08.000Z,19.9
2022-11-29T01:00:41.000Z,20.9
2022-11-29T01:04:14.000Z,21.5
2022-11-29T01:07:05.000Z,20.6
2022-11-29T01:10:37.000Z,23.4
2022-11-29T01:14:10.000Z,20.6
2022-11-29T01:17:42.000Z,20.5
2022-11-29T01:21:15.000Z,23.2
2022-11-29T01:24:48.000Z,22.1
2022-11-29T01:28:20.000Z,22.1
2022-11-29T01:31:53.000Z,23.3
2022-11-29T01:35:25.000Z,21.3
2022-11-29T01:38:58.000Z,23.8
2022-11-29T01:42:30.000Z,19.8
2022-11-29T01:45:21.000Z,23.1
2022-11-29T01:48:54.000Z,20.2
2022-11-29T01:52:26.000Z,20.6
2022-11-29T01:55:59.000Z,22.3
2022-11-29T01:59:32.000Z,19.9
2022-11-29T02:03:05.000Z,20.3
2022-11-29T02:06:37.000Z,19.4
2022-11-29T02:10:10.000Z,18.7
2022-11-29T02:13:42.000Z,22.3
2022-11-29T02:17:15.000Z,21.5
2022-11-29T02:20:48.000Z,19.9
2022-11-29T02:23:39.000Z,20
2022-11-29T02:27:12.000Z,21.8
2022-11-29T02:30:44.000Z,21.6
2022-11-29T02:34:17.000Z,21.4
2022-11-29T02:37:49.000Z,21.3
2022-11-29T02:41:22.000Z,21.4
2022-11-29T02:44:55.000Z,18.2
2022-11-29T02:48:28.000Z,19.7
2022-11-29T02:52:01.000Z,17.2
2022-11-29T02:55:33.000Z,16.5
2022-11-29T02:59:06.000Z,17.4
2022-11-29T03:01:57.000Z,17.4
2022-11-29T03:05:30.000Z,19
2022-11-29T03:09:03.000Z,17.6
2022-11-29T03:12:35.000Z,19.4
2022-11-29T03:16:08.000Z,18.6
2022-11-29T03:19:40.000Z,16.3
2022-11-29T03:23:13.000Z,16.8
2022-11-29T03:26:46.000Z,19.7
2022-11-29T03:30:18.000Z,19.2
2022-11-29T03:33:51.000Z,16.2
2022-11-29T03:37:24.000Z,18.4
2022-11-29T03:40:15.000Z,17.8
2022-11-29T03:43:47.000Z,15.8
2022-11-29T03:47:20.000Z,17.1
2022-11-29T03:50:52.000Z,16.2
2022-11-29T03:54:25.000Z,15.3
2022-11-29T03:57:58.000Z,18.1
2022-11-29T04:01:30.000Z,19.2
2022-11-29T04:05:03.000Z,19.3
2022-11-29T04:08:36.000Z,19.8
2022-11-29T04:12:08.000Z,17.6
2022-11-29T04:15:41.000Z,18
2022-11-29T04:18:32.000Z,16.6
2022-11-29T04:22:05.000Z,14.7
2022-11-29T04:25:37.000Z,14.4
2022-11-29T04:29:10.000Z,16.6
2022-11-29T04:32:42.000Z,18.6
2022-11-29T04:36:15.000Z,18.5
2022-11-29T04:39:48.000Z,17.4
2022-11-29T04:43:20.000Z,17.6
2022-11-29T04:46:53.000Z,18.3
2022-11-29T04:50:26.000Z,19.1
2022-11-29T04:53:58.000Z,15.4
2022-11-29T04:56:49.000Z,15.1
2022-11-29T05:00:22.000Z,13.6
2022-11-29T05:03:54.000Z,16.4
2022-11-29T05:07:27.000Z,15.6
2022-11-29T05:11:00.000Z,14.8
2022-11-29T05:14:32.000Z,14.4
2022-11-29T05:18:05.000Z,14.8
2022-11-29T05:21:38.000Z,14.2
2022-11-29T05:25:10.000Z,14.1
2022-11-29T05:28:43.000Z,13.3
2022-11-29T05:32:16.000Z,15.2
2022-11-29T05:35:07.000Z,14
2022-11-29T05:38:39.000Z,13.1
2022-11-29T05:42:12.000Z,14.7
2022-11-29T05:45:44.000Z,13.6
2022-11-29T05:49:17.000Z,12.6
2022-11-29T05:52:50.000Z,16.7
2022-11-29T05:56:22.000Z,13.7
2022-11-29T05:59:55.000Z,13.4
2022-11-29T06:03:28.000Z,16.5
2022-11-29T06:07:00.000Z,12.8
2022-11-29T06:10:33.000Z,13.5
2022-11-29T06:13:24.000Z,17.9
2022-11-29T06:16:56.000Z,19.5
2022-11-29T06:20:29.000Z,14.9
2022-11-29T06:24:02.000Z,13.1
2022-11-29T06:27:34.000Z,12.1
2022-11-29T06:31:07.000Z,12
2022-11-29T06:34:40.000Z,17.6
2022-11-29T06:38:13.000Z,17.5
2022-11-29T06:41:46.000Z,14.1
2022-11-29T06:45:18.000Z,13.2
2022-11-29T06:48:51.000Z,13.4
2022-11-29T06:51:46.000Z,16.7
2022-11-29T06:55:18.000Z,16
2022-11-29T06:58:51.000Z,15.3
2022-11-29T07:02:24.000Z,15.1
2022-11-29T07:05:56.000Z,19.2
2022-11-29T07:09:29.000Z,19.3
2022-11-29T07:13:02.000Z,18
2022-11-29T07:16:34.000Z,20.8
2022-11-29T07:20:07.000Z,14.1
2022-11-29T07:23:39.000Z,16.9
2022-11-29T07:27:12.000Z,15.6
2022-11-29T07:30:03.000Z,18.5
2022-11-29T07:33:36.000Z,18
2022-11-29T07:37:09.000Z,13.8
2022-11-29T07:40:41.000Z,15.8
2022-11-29T07:44:14.000Z,13.8
2022-11-29T07:47:46.000Z,13.4
2022-11-29T07:51:19.000Z,13.3
2022-11-29T07:54:52.000Z,14.2
2022-11-29T07:58:25.000Z,14.3
2022-11-29T08:01:57.000Z,14.9
2022-11-29T08:05:36.000Z,16
2022-11-29T08:08:27.000Z,29.7
2022-11-29T08:12:08.000Z,25.9
2022-11-29T08:15:41.000Z,22.9
2022-11-29T08:19:13.000Z,18
2022-11-29T08:22:46.000Z,16.1
2022-11-29T08:26:19.000Z,18.3
2022-11-29T08:29:56.000Z,17.2
2022-11-29T08:33:29.000Z,21.3
2022-11-29T08:37:02.000Z,19.5
2022-11-29T08:40:34.000Z,17.5
2022-11-29T08:44:07.000Z,21.2
2022-11-29T08:46:58.000Z,18.8
2022-11-29T08:50:31.000Z,16.5
2022-11-29T08:54:03.000Z,17.5
2022-11-29T08:57:36.000Z,19.5
2022-11-29T09:01:08.000Z,19
2022-11-29T09:04:41.000Z,18.6
2022-11-29T09:08:14.000Z,19.7
2022-11-29T09:11:47.000Z,15.8
2022-11-29T09:15:19.000Z,17.6
2022-11-29T09:18:52.000Z,18.5
2022-11-29T09:22:24.000Z,20.7
2022-11-29T09:25:16.000Z,17.9
2022-11-29T09:28:48.000Z,18.6
2022-11-29T09:32:22.000Z,20.1
2022-11-29T09:35:55.000Z,19.7
2022-11-29T09:39:28.000Z,16.8
2022-11-29T09:43:00.000Z,17.1
2022-11-29T09:46:33.000Z,18.3
2022-11-29T09:50:06.000Z,20.2
2022-11-29T09:53:43.000Z,20.2
2022-11-29T09:57:15.000Z,18.9
2022-11-29T10:00:48.000Z,16.5
2022-11-29T10:03:39.000Z,18
2022-11-29T10:07:12.000Z,18.5
2022-11-29T10:10:44.000Z,23.3
2022-11-29T10:14:17.000Z,22.8
2022-11-29T10:17:50.000Z,21.5
2022-11-29T10:21:22.000Z,21.4
2022-11-29T10:24:55.000Z,21
2022-11-29T10:28:33.000Z,17.4
2022-11-29T10:32:06.000Z,20
2022-11-29T10:35:39.000Z,18.2
2022-11-29T10:39:11.000Z,29.1
2022-11-29T10:42:03.000Z,25.2
2022-11-29T10:45:35.000Z,21.5
2022-11-29T10:49:09.000Z,22.2
2022-11-29T10:52:42.000Z,21.8
2022-11-29T10:56:15.000Z,23.4
2022-11-29T10:59:47.000Z,25.6
2022-11-29T11:03:20.000Z,24.5
2022-11-29T11:06:53.000Z,25.3
2022-11-29T11:10:25.000Z,25.2
2022-11-29T11:13:58.000Z,25
2022-11-29T11:17:31.000Z,22.5
2022-11-29T11:20:21.000Z,24.5
2022-11-29T11:23:54.000Z,24.6
2022-11-29T11:27:27.000Z,21.5
2022-11-29T11:30:59.000Z,22.2
2022-11-29T11:34:32.000Z,21.3
2022-11-29T11:38:05.000Z,20.4
2022-11-29T11:41:37.000Z,19.5
2022-11-29T11:45:10.000Z,18.3
2022-11-29T11:48:43.000Z,17.5
2022-11-29T11:52:15.000Z,17
2022-11-29T11:55:48.000Z,16.5
2022-11-29T11:58:39.000Z,17.1
2022-11-29T12:02:12.000Z,15.8
2022-11-29T12:05:45.000Z,14.8
2022-11-29T12:09:18.000Z,14.9
2022-11-29T12:12:50.000Z,14.5
2022-11-29T12:16:23.000Z,14.6
2022-11-29T12:19:56.000Z,13.7
2022-11-29T12:23:28.000Z,13.3
2022-11-29T12:27:01.000Z,13.4
2022-11-29T12:30:33.000Z,12.6
2022-11-29T12:34:06.000Z,13
2022-11-29T12:36:57.000Z,13.6
2022-11-29T12:40:30.000Z,12.2
2022-11-29T12:44:02.000Z,13.4
2022-11-29T12:47:35.000Z,12.8
2022-11-29T12:51:14.000Z,12.3
2022-11-29T12:54:46.000Z,12.4
2022-11-29T12:58:19.000Z,13.2
2022-11-29T13:01:51.000Z,11.8
2022-11-29T13:05:24.000Z,13.4
2022-11-29T13:08:57.000Z,12.5
2022-11-29T13:12:29.000Z,13.8
2022-11-29T13:15:21.000Z,18.2
2022-11-29T13:18:54.000Z,31.8
2022-11-29T13:22:26.000Z,35.6
2022-11-29T13:26:07.000Z,33.7
2022-11-29T13:29:40.000Z,19.8
2022-11-29T13:33:12.000Z,16.8
2022-11-29T13:36:46.000Z,24
2022-11-29T13:40:18.000Z,26.5
2022-11-29T13:43:51.000Z,23.6
2022-11-29T13:47:23.000Z,21.7
2022-11-29T13:50:56.000Z,18.5
2022-11-29T13:53:47.000Z,16.3
2022-11-29T13:57:20.000Z,15.5
2022-11-29T14:00:52.000Z,15.4
2022-11-29T14:04:25.000Z,17.2
2022-11-29T14:07:58.000Z,15.8
2022-11-29T14:11:30.000Z,16.5
2022-11-29T14:15:03.000Z,15.7
2022-11-29T14:18:35.000Z,15.7
2022-11-29T14:22:08.000Z,15.9
2022-11-29T14:25:41.000Z,16
2022-11-29T14:29:17.000Z,15.5
2022-11-29T14:32:09.000Z,16.2
2022-11-29T14:35:41.000Z,15.6
2022-11-29T14:39:14.000Z,16.2
2022-11-29T14:42:47.000Z,16.1
2022-11-29T14:46:19.000Z,19
2022-11-29T14:49:54.000Z,16.9
2022-11-29T14:53:27.000Z,17.2
2022-11-29T14:57:00.000Z,15.9
2022-11-29T15:00:32.000Z,15.4
2022-11-29T15:04:05.000Z,14.9
2022-11-29T15:07:38.000Z,15.8
2022-11-29T15:10:30.000Z,14.9
2022-11-29T15:14:02.000Z,13.9
2022-11-29T15:17:35.000Z,13.7
2022-11-29T15:21:08.000Z,13.3
2022-11-29T15:24:40.000Z,13.6
2022-11-29T15:28:13.000Z,13.6
2022-11-29T15:31:45.000Z,15.2
2022-11-29T15:35:18.000Z,13.9
2022-11-29T15:38:51.000Z,14.9
2022-11-29T15:42:24.000Z,14.7
2022-11-29T15:45:58.000Z,14.9
2022-11-29T15:48:49.000Z,16.1
2022-11-29T15:52:21.000Z,17
2022-11-29T15:56:11.000Z,17
2022-11-29T15:59:43.000Z,16.9
2022-11-29T16:03:16.000Z,17.7
2022-11-29T16:06:49.000Z,18.2
2022-11-29T16:10:22.000Z,17.8
2022-11-29T16:14:00.000Z,17.8
2022-11-29T16:17:33.000Z,18.1
2022-11-29T16:21:05.000Z,16.8
2022-11-29T16:24:38.000Z,16.7
2022-11-29T16:27:30.000Z,17.4
2022-11-29T16:31:02.000Z,18
2022-11-29T16:34:42.000Z,16.3
2022-11-29T16:38:15.000Z,17.1
2022-11-29T16:41:47.000Z,16.5
2022-11-29T16:45:20.000Z,16.6
2022-11-29T16:48:53.000Z,14.7
2022-11-29T16:52:26.000Z,15.1
2022-11-29T16:55:58.000Z,15.4
2022-11-29T16:59:31.000Z,14.3
2022-11-29T17:03:03.000Z,15.6
2022-11-29T17:05:54.000Z,14.7
2022-11-29T17:09:27.000Z,13.4
2022-11-29T17:13:00.000Z,13.8
2022-11-29T17:16:32.000Z,14.4
2022-11-29T17:20:05.000Z,13.8
2022-11-29T17:23:38.000Z,14.7
2022-11-29T17:27:10.000Z,14.8
2022-11-29T17:30:43.000Z,14.6
2022-11-29T17:34:20.000Z,14.4
2022-11-29T17:37:53.000Z,14.4
2022-11-29T17:41:26.000Z,15.1
2022-11-29T17:44:17.000Z,15.5
2022-11-29T17:47:49.000Z,15.8
2022-11-29T17:51:22.000Z,16.1
2022-11-29T17:55:17.000Z,17.2
2022-11-29T17:58:54.000Z,18
2022-11-29T18:02:27.000Z,18
2022-11-29T18:06:00.000Z,17.7
2022-11-29T18:09:32.000Z,16.7
2022-11-29T18:13:05.000Z,16.9
2022-11-29T18:16:38.000Z,16.3
2022-11-29T18:20:11.000Z,16.6
2022-11-29T18:23:02.000Z,17.7
2022-11-29T18:26:34.000Z,16.8
2022-11-29T18:30:07.000Z,17.4
2022-11-29T18:33:40.000Z,16.1
2022-11-29T18:37:12.000Z,15.6
2022-11-29T18:41:22.000Z,16.7
2022-11-29T18:44:55.000Z,18
2022-11-29T18:48:27.000Z,20.7
2022-11-29T18:52:00.000Z,14.1
2022-11-29T18:55:33.000Z,20.1
2022-11-29T18:59:06.000Z,14.9
2022-11-29T19:01:57.000Z,14.8
2022-11-29T19:05:29.000Z,24.1
2022-11-29T19:09:02.000Z,26.8
2022-11-29T19:12:35.000Z,15.7
2022-11-29T19:16:07.000Z,15.3
2022-11-29T19:19:42.000Z,18.9
2022-11-29T19:23:14.000Z,19.9
2022-11-29T19:26:47.000Z,27.6
2022-11-29T19:30:20.000Z,28.6
2022-11-29T19:33:52.000Z,20.2
2022-11-29T19:37:25.000Z,19.7
2022-11-29T19:40:16.000Z,25.4
2022-11-29T19:43:49.000Z,26.6
2022-11-29T19:47:21.000Z,24.2
2022-11-29T19:50:54.000Z,20
2022-11-29T19:54:27.000Z,26
2022-11-29T19:57:59.000Z,27.8
2022-11-29T20:01:32.000Z,29.8
2022-11-29T20:05:07.000Z,23.8
2022-11-29T20:08:40.000Z,21.6
2022-11-29T20:12:12.000Z,24.7
2022-11-29T20:15:45.000Z,22
2022-11-29T20:18:36.000Z,27.3
2022-11-29T20:22:15.000Z,21.2
2022-11-29T20:25:48.000Z,20.4
2022-11-29T20:29:20.000Z,22.2
2022-11-29T20:32:53.000Z,25.7
2022-11-29T20:36:26.000Z,24.7
2022-11-29T20:39:58.000Z,24.1
2022-11-29T20:43:31.000Z,28.4
2022-11-29T20:47:04.000Z,28.5
2022-11-29T20:50:36.000Z,26.5
2022-11-29T20:54:09.000Z,28.2
2022-11-29T20:57:00.000Z,24.7
2022-11-29T21:00:32.000Z,24.6
2022-11-29T21:04:05.000Z,23.4
2022-11-29T21:07:38.000Z,30.2
2022-11-29T21:11:10.000Z,32.9
2022-11-29T21:14:43.000Z,31.6
2022-11-29T21:18:16.000Z,30.8
2022-11-29T21:21:48.000Z,30.2
2022-11-29T21:25:21.000Z,29.1
2022-11-29T21:28:54.000Z,25.9
2022-11-29T21:32:26.000Z,26.9
2022-11-29T21:35:17.000Z,28.2
2022-11-29T21:38:50.000Z,25.9
2022-11-29T21:42:29.000Z,22.1
2022-11-29T21:46:06.000Z,20.7
2022-11-29T21:49:39.000Z,19.9
2022-11-29T21:53:11.000Z,20.6
2022-11-29T21:56:45.000Z,18.2
2022-11-29T22:00:17.000Z,17.8
2022-11-29T22:03:50.000Z,17.8
2022-11-29T22:07:23.000Z,19.1
2022-11-29T22:10:56.000Z,18.2
2022-11-29T22:13:46.000Z,16.6
2022-11-29T22:17:23.000Z,17.8
2022-11-29T22:20:55.000Z,19.4
2022-11-29T22:24:28.000Z,30.6
2022-11-29T22:28:01.000Z,22.4
2022-11-29T22:31:33.000Z,30.9
2022-11-29T22:35:12.000Z,32.5
2022-11-29T22:38:44.000Z,31.9
2022-11-29T22:42:17.000Z,32.7
2022-11-29T22:45:49.000Z,26
2022-11-29T22:49:22.000Z,26.7
2022-11-29T22:52:13.000Z,26
2022-11-29T22:55:46.000Z,24.1
2022-11-29T22:59:19.000Z,29.8
2022-11-29T23:02:51.000Z,30.3
2022-11-29T23:06:24.000Z,31.4
2022-11-29T23:09:57.000Z,28.8
2022-11-29T23:13:29.000Z,30.5
2022-11-29T23:17:02.000Z,26.9
2022-11-29T23:20:34.000Z,27.3
2022-11-29T23:24:07.000Z,26.1
2022-11-29T23:27:40.000Z,22.8
2022-11-29T23:30:31.000Z,22.3
2022-11-29T23:34:03.000Z,21.6
2022-11-29T23:37:36.000Z,21
2022-11-29T23:41:09.000Z,20.3
2022-11-29T23:44:45.000Z,20.3
2022-11-29T23:48:18.000Z,19.3
2022-11-29T23:51:51.000Z,18.1
2022-11-29T23:55:23.000Z,17.8
2022-11-29T23:58:56.000Z,17.2
